Time;durP1;ratioP1;P1;durP2;ratioP2;P2;SDS_P1;SDS_P2;PMS_P1;PMS_P2;Temp;Humidity;BMP_temperature;BMP_pressure;BME280_temperature;BME280_humidity;BME280_pressure;Samples;Min_cycle;Max_cycle;Signal;HPM_P1;HPM_P2
2022/07/22 00:00:07;;;;;;;7.38;2.35;;;17.00;99.90;;;;;;5054102;28;20037;-66
2022/07/22 00:02:33;;;;;;;6.25;2.40;;;17.00;99.90;;;;;;5009078;28;20041;-67
2022/07/22 00:04:58;;;;;;;8.40;2.75;;;16.90;99.90;;;;;;5033115;28;20033;-67
2022/07/22 00:07:24;;;;;;;10.23;2.63;;;17.00;99.90;;;;;;5036094;28;20405;-67
2022/07/22 00:09:49;;;;;;;10.63;2.60;;;17.00;99.90;;;;;;5019294;28;20120;-67
2022/07/22 00:12:15;;;;;;;7.63;2.30;;;17.00;99.90;;;;;;5019991;28;20041;-67
2022/07/22 00:14:41;;;;;;;7.53;2.85;;;17.00;99.90;;;;;;5036680;28;20467;-67
2022/07/22 00:17:07;;;;;;;6.72;2.38;;;17.00;99.90;;;;;;5037185;28;20106;-67
2022/07/22 00:19:32;;;;;;;9.07;2.60;;;17.00;99.90;;;;;;5020122;28;20047;-67
2022/07/22 00:21:58;;;;;;;8.30;2.42;;;17.00;99.90;;;;;;5019574;28;20404;-67
2022/07/22 00:24:24;;;;;;;10.05;2.58;;;17.00;99.90;;;;;;5037064;28;20051;-68
2022/07/22 00:26:49;;;;;;;6.97;2.50;;;17.00;99.90;;;;;;5036897;28;20029;-67
2022/07/22 00:29:15;;;;;;;9.85;3.15;;;17.00;99.90;;;;;;5035241;28;20098;-67
2022/07/22 00:31:40;;;;;;;9.00;3.15;;;17.10;99.90;;;;;;5034547;28;20061;-67
2022/07/22 00:34:06;;;;;;;11.93;3.40;;;17.00;99.90;;;;;;5036651;28;20056;-67
2022/07/22 00:36:32;;;;;;;8.98;3.47;;;17.00;99.90;;;;;;5027492;28;20548;-67
2022/07/22 00:38:58;;;;;;;10.75;3.70;;;17.00;99.90;;;;;;5033894;28;20397;-67
2022/07/22 00:41:24;;;;;;;8.30;3.17;;;17.00;99.90;;;;;;5035565;28;20114;-67
2022/07/22 00:44:01;;;;;;;9.35;3.28;;;17.00;99.90;;;;;;5019656;28;20493;-67
2022/07/22 00:46:28;;;;;;;8.55;3.10;;;17.00;99.90;;;;;;5036714;28;20052;-67
2022/07/22 00:48:55;;;;;;;11.73;3.95;;;17.00;99.90;;;;;;5036750;28;20375;-67
2022/07/22 00:51:22;;;;;;;9.70;3.47;;;17.00;99.90;;;;;;5035540;28;20057;-67
2022/07/22 00:53:47;;;;;;;11.50;3.63;;;17.00;99.90;;;;;;5019964;28;20511;-67
2022/07/22 00:56:15;;;;;;;11.85;3.15;;;17.00;99.90;;;;;;5019656;28;20075;-67
2022/07/22 00:58:41;;;;;;;10.82;3.80;;;17.00;99.90;;;;;;5018886;28;20087;-67
2022/07/22 01:01:06;;;;;;;8.65;3.10;;;17.00;99.90;;;;;;5039138;28;20523;-67
2022/07/22 01:03:32;;;;;;;7.28;3.50;;;17.00;99.90;;;;;;5036516;28;20408;-67
2022/07/22 01:05:57;;;;;;;8.82;3.03;;;16.90;99.90;;;;;;5018990;28;20152;-67
2022/07/22 01:08:24;;;;;;;11.02;3.05;;;16.90;99.90;;;;;;5036458;28;20178;-67
2022/07/22 01:10:50;;;;;;;9.95;3.33;;;16.90;99.90;;;;;;5035383;28;20048;-67
2022/07/22 01:13:16;;;;;;;9.02;3.20;;;16.90;99.90;;;;;;5036090;28;20140;-67
2022/07/22 01:15:41;;;;;;;8.52;3.20;;;16.90;99.90;;;;;;5035133;28;20124;-67
2022/07/22 01:18:07;;;;;;;8.68;2.88;;;16.90;99.90;;;;;;5035939;28;20041;-67
2022/07/22 01:20:34;;;;;;;11.35;3.15;;;16.90;99.90;;;;;;5035272;28;20116;-67
2022/07/22 01:23:00;;;;;;;11.85;2.97;;;16.90;99.90;;;;;;5036127;28;20087;-67
2022/07/22 01:25:26;;;;;;;9.25;2.85;;;16.90;99.90;;;;;;5019360;28;20048;-67
2022/07/22 01:27:51;;;;;;;9.38;2.88;;;16.90;99.90;;;;;;5017247;28;20044;-67
2022/07/22 01:30:17;;;;;;;8.70;2.85;;;16.90;99.90;;;;;;5035190;28;20037;-67
2022/07/22 01:32:43;;;;;;;7.53;2.35;;;16.90;99.90;;;;;;5035476;28;20048;-67
2022/07/22 01:35:08;;;;;;;11.30;3.10;;;16.90;99.90;;;;;;5035705;28;20123;-67
2022/07/22 01:37:34;;;;;;;9.65;2.80;;;16.80;99.90;;;;;;5034883;28;20048;-67
2022/07/22 01:40:00;;;;;;;10.15;2.67;;;16.80;99.90;;;;;;5019184;28;20040;-67
2022/07/22 01:42:26;;;;;;;8.45;2.70;;;16.80;99.90;;;;;;5034093;28;20102;-67
2022/07/22 01:44:52;;;;;;;9.18;2.42;;;16.80;99.90;;;;;;5053419;28;20037;-67
2022/07/22 01:47:17;;;;;;;9.23;2.53;;;16.80;99.90;;;;;;5035390;28;20497;-67
2022/07/22 01:49:44;;;;;;;10.32;2.55;;;16.70;99.90;;;;;;5034477;28;20090;-67
2022/07/22 01:52:09;;;;;;;6.60;2.20;;;16.70;99.90;;;;;;5034408;28;20056;-67
2022/07/22 01:54:35;;;;;;;11.68;2.92;;;16.70;99.90;;;;;;5017476;28;20405;-67
2022/07/22 01:57:01;;;;;;;6.65;2.63;;;16.70;99.90;;;;;;5035284;28;20041;-67
2022/07/22 01:59:26;;;;;;;8.77;2.75;;;16.60;99.90;;;;;;5025687;28;20035;-67
2022/07/22 02:01:52;;;;;;;7.55;2.15;;;16.60;99.90;;;;;;5028266;28;20124;-67
2022/07/22 02:04:17;;;;;;;8.32;2.65;;;16.60;99.90;;;;;;5032100;28;20106;-67
2022/07/22 02:06:43;;;;;;;10.48;2.47;;;16.60;99.90;;;;;;5034483;28;20051;-67
2022/07/22 02:09:09;;;;;;;9.55;2.53;;;16.50;99.90;;;;;;5035222;28;20082;-67
2022/07/22 02:11:34;;;;;;;8.38;2.50;;;16.50;99.90;;;;;;5033121;28;20119;-67
2022/07/22 02:14:01;;;;;;;7.60;2.08;;;16.50;99.90;;;;;;5034800;28;20049;-67
2022/07/22 02:16:27;;;;;;;8.75;2.30;;;16.50;99.90;;;;;;5033734;28;20509;-67
2022/07/22 02:18:53;;;;;;;7.72;1.98;;;16.50;99.90;;;;;;5017665;28;20040;-67
2022/07/22 02:21:19;;;;;;;9.32;2.60;;;16.50;99.90;;;;;;5033271;28;20024;-67
2022/07/22 02:23:45;;;;;;;7.70;2.30;;;16.50;99.90;;;;;;5017951;28;20124;-67
2022/07/22 02:26:10;;;;;;;9.13;2.00;;;16.50;99.90;;;;;;5017249;28;20266;-67
2022/07/22 02:28:36;;;;;;;8.20;2.53;;;16.50;99.90;;;;;;5017606;28;20075;-67
2022/07/22 02:31:02;;;;;;;7.35;2.15;;;16.50;99.90;;;;;;5035411;28;20053;-67
2022/07/22 02:33:29;;;;;;;7.47;2.08;;;16.50;99.90;;;;;;5034808;28;20106;-67
2022/07/22 02:35:55;;;;;;;6.97;1.80;;;16.50;99.90;;;;;;5034356;28;20037;-67
2022/07/22 02:38:21;;;;;;;8.60;2.45;;;16.50;99.90;;;;;;5019288;28;20086;-67
2022/07/22 02:40:46;;;;;;;10.68;2.22;;;16.40;99.90;;;;;;5038231;28;20091;-67
2022/07/22 02:43:12;;;;;;;7.40;2.30;;;16.40;99.90;;;;;;5038698;28;20048;-67
2022/07/22 02:45:38;;;;;;;7.93;1.90;;;16.40;99.90;;;;;;5037999;28;20048;-67
2022/07/22 02:48:04;;;;;;;6.82;2.50;;;16.40;99.90;;;;;;5038800;28;20045;-67
2022/07/22 02:50:29;;;;;;;7.43;2.20;;;16.40;99.90;;;;;;5038277;28;20163;-67
2022/07/22 02:52:55;;;;;;;6.75;2.20;;;16.40;99.90;;;;;;5038513;28;20045;-67
2022/07/22 02:55:21;;;;;;;7.93;2.03;;;16.40;99.90;;;;;;5038706;28;20508;-67
2022/07/22 02:57:46;;;;;;;7.10;2.40;;;16.30;99.90;;;;;;5037248;28;20045;-67
2022/07/22 03:00:13;;;;;;;7.15;1.88;;;16.40;99.90;;;;;;5037485;28;20037;-67
2022/07/22 03:02:39;;;;;;;8.27;2.10;;;16.40;99.90;;;;;;5037886;28;20072;-67
2022/07/22 03:05:06;;;;;;;8.80;2.70;;;16.40;99.90;;;;;;5038531;28;20040;-67
2022/07/22 03:07:31;;;;;;;11.45;2.38;;;16.30;99.90;;;;;;5020782;28;20041;-67
2022/07/22 03:09:57;;;;;;;4.07;1.73;;;16.30;99.90;;;;;;5038365;28;20068;-67
2022/07/22 03:12:23;;;;;;;6.10;1.80;;;16.30;99.90;;;;;;5021083;28;20090;-66
2022/07/22 03:14:48;;;;;;;9.43;1.75;;;16.30;99.90;;;;;;5038294;28;20469;-67
2022/07/22 03:17:14;;;;;;;6.50;1.70;;;16.30;99.90;;;;;;5037026;28;20059;-67
2022/07/22 03:19:40;;;;;;;7.65;1.98;;;16.30;99.90;;;;;;5038233;28;20136;-67
2022/07/22 03:22:05;;;;;;;5.18;1.88;;;16.40;99.90;;;;;;5037471;28;20095;-66
2022/07/22 03:24:31;;;;;;;5.45;1.60;;;16.30;99.90;;;;;;5038125;28;20047;-66
2022/07/22 03:26:57;;;;;;;6.45;1.88;;;16.20;99.90;;;;;;5037316;28;20087;-67
2022/07/22 03:29:22;;;;;;;4.57;1.75;;;16.30;99.90;;;;;;5020627;28;20074;-67
2022/07/22 03:31:48;;;;;;;4.72;1.67;;;16.30;99.90;;;;;;5045392;28;20052;-66
2022/07/22 03:34:13;;;;;;;5.85;1.95;;;16.20;99.90;;;;;;5037312;28;20052;-67
2022/07/22 03:36:39;;;;;;;7.93;1.88;;;16.20;99.90;;;;;;5021492;28;20066;-67
2022/07/22 03:39:05;;;;;;;6.00;1.75;;;16.20;99.90;;;;;;5037815;28;20124;-67
2022/07/22 03:41:30;;;;;;;5.30;1.75;;;16.10;99.90;;;;;;5036806;28;20033;-66
2022/07/22 03:43:56;;;;;;;6.43;1.92;;;16.20;99.90;;;;;;5036394;28;20199;-67
2022/07/22 03:46:21;;;;;;;6.90;1.88;;;16.10;99.90;;;;;;5037729;28;20045;-67
2022/07/22 03:48:47;;;;;;;6.55;1.77;;;16.10;99.90;;;;;;5037518;28;20574;-67
2022/07/22 03:51:13;;;;;;;5.30;1.77;;;16.10;99.90;;;;;;5019415;28;20455;-67
2022/07/22 03:53:39;;;;;;;5.13;1.75;;;16.00;99.90;;;;;;5021094;28;20409;-67
2022/07/22 03:56:05;;;;;;;5.63;1.92;;;16.00;99.90;;;;;;5036739;28;20029;-67
2022/07/22 03:58:30;;;;;;;5.72;1.77;;;16.00;99.90;;;;;;5036518;28;20091;-67
2022/07/22 04:00:56;;;;;;;4.13;1.40;;;16.00;99.90;;;;;;5036536;28;20046;-67
2022/07/22 04:03:22;;;;;;;8.95;2.13;;;16.00;99.90;;;;;;5019980;28;20037;-67
2022/07/22 04:05:47;;;;;;;4.55;1.60;;;15.90;99.90;;;;;;5054023;28;20041;-67
2022/07/22 04:08:13;;;;;;;4.38;1.55;;;16.00;99.90;;;;;;5054168;28;20033;-67
2022/07/22 04:10:39;;;;;;;6.28;1.67;;;16.00;99.90;;;;;;5035707;28;20482;-66
2022/07/22 04:13:05;;;;;;;5.15;1.77;;;16.00;99.90;;;;;;5000957;28;20041;-67
2022/07/22 04:15:30;;;;;;;5.13;1.70;;;16.00;99.90;;;;;;5017312;28;20087;-67
2022/07/22 04:17:56;;;;;;;8.65;1.80;;;16.00;99.90;;;;;;5052585;28;20033;-67
2022/07/22 04:20:22;;;;;;;5.50;1.55;;;16.00;99.90;;;;;;5020962;28;20080;-66
2022/07/22 04:22:47;;;;;;;8.13;1.70;;;16.00;99.90;;;;;;5020071;28;20561;-67
2022/07/22 04:25:14;;;;;;;7.82;1.60;;;16.00;99.90;;;;;;5037286;28;20076;-67
2022/07/22 04:27:39;;;;;;;8.13;1.80;;;16.00;99.90;;;;;;5019717;28;20040;-67
2022/07/22 04:30:06;;;;;;;6.57;1.88;;;16.00;99.90;;;;;;5036256;28;20063;-67
2022/07/22 04:32:32;;;;;;;3.13;1.65;;;16.00;99.90;;;;;;5022968;28;20128;-67
2022/07/22 04:34:57;;;;;;;6.55;1.80;;;15.90;99.90;;;;;;5036854;28;20171;-67
2022/07/22 04:37:23;;;;;;;7.68;1.77;;;16.00;99.90;;;;;;5036746;28;20037;-67
2022/07/22 04:39:48;;;;;;;6.65;1.67;;;16.00;99.90;;;;;;5036910;28;20443;-67
2022/07/22 04:42:14;;;;;;;6.97;2.00;;;16.00;99.90;;;;;;5019293;28;20045;-67
2022/07/22 04:44:39;;;;;;;6.30;2.05;;;16.00;99.90;;;;;;5036673;28;20044;-67
2022/07/22 04:47:05;;;;;;;5.05;1.63;;;16.00;99.90;;;;;;5035733;28;20068;-67
2022/07/22 04:49:31;;;;;;;6.00;1.90;;;15.90;99.90;;;;;;5036519;28;20127;-67
2022/07/22 04:51:56;;;;;;;7.47;1.67;;;15.90;99.90;;;;;;5035811;28;20041;-67
2022/07/22 04:54:22;;;;;;;5.32;1.92;;;15.90;99.90;;;;;;5036512;28;20123;-67
2022/07/22 04:56:47;;;;;;;6.45;1.90;;;15.90;99.90;;;;;;5035647;28;20047;-67
2022/07/22 04:59:13;;;;;;;6.35;2.13;;;16.00;99.90;;;;;;5035377;28;20485;-67
2022/07/22 05:01:38;;;;;;;8.50;1.92;;;15.90;99.90;;;;;;5018054;28;20444;-67
2022/07/22 05:04:04;;;;;;;7.55;2.08;;;16.00;99.90;;;;;;5036097;28;20040;-67
2022/07/22 05:06:30;;;;;;;6.97;1.80;;;16.10;99.90;;;;;;5034668;28;20040;-67
2022/07/22 05:08:55;;;;;;;7.13;1.88;;;16.00;99.90;;;;;;5036191;28;20040;-67
2022/07/22 05:11:21;;;;;;;8.85;2.00;;;16.00;99.90;;;;;;5035358;28;20047;-67
2022/07/22 05:13:46;;;;;;;6.50;1.83;;;16.00;99.90;;;;;;5019753;28;20543;-67
2022/07/22 05:16:12;;;;;;;7.22;2.33;;;16.10;99.90;;;;;;5035564;28;20436;-67
2022/07/22 05:18:38;;;;;;;8.82;2.08;;;16.10;99.90;;;;;;5036188;28;20033;-67
2022/07/22 05:21:04;;;;;;;7.72;2.00;;;16.10;99.90;;;;;;5035559;28;20044;-67
2022/07/22 05:23:30;;;;;;;6.53;2.00;;;16.20;99.90;;;;;;5036177;28;20067;-67
2022/07/22 05:25:55;;;;;;;7.28;2.00;;;16.20;99.90;;;;;;5035120;28;20044;-67
2022/07/22 05:28:22;;;;;;;6.13;1.90;;;16.20;99.90;;;;;;5033390;28;20037;-67
2022/07/22 05:30:47;;;;;;;6.05;2.22;;;16.20;99.90;;;;;;5034569;28;20469;-67
2022/07/22 05:33:13;;;;;;;5.38;1.52;;;16.20;99.90;;;;;;5048385;28;20076;-67
2022/07/22 05:35:39;;;;;;;6.60;1.98;;;16.30;99.90;;;;;;5016014;28;20482;-67
2022/07/22 05:38:05;;;;;;;7.18;1.77;;;16.20;99.90;;;;;;5028209;28;20040;-67
2022/07/22 05:40:32;;;;;;;6.70;1.70;;;16.30;99.90;;;;;;5030780;28;20052;-67
2022/07/22 05:42:57;;;;;;;5.70;2.05;;;16.20;99.90;;;;;;5019246;28;20485;-67
2022/07/22 05:45:23;;;;;;;8.43;2.05;;;16.30;99.90;;;;;;5042161;28;20052;-67
2022/07/22 05:47:49;;;;;;;4.82;2.10;;;16.30;99.90;;;;;;5023281;28;20041;-67
2022/07/22 05:50:14;;;;;;;4.85;1.92;;;16.30;99.90;;;;;;5031676;28;20036;-67
2022/07/22 05:52:40;;;;;;;5.47;1.70;;;16.30;99.90;;;;;;5028657;28;20094;-67
2022/07/22 05:55:07;;;;;;;6.95;1.80;;;16.30;99.90;;;;;;5033071;28;20390;-67
2022/07/22 05:57:32;;;;;;;6.38;2.08;;;16.30;99.90;;;;;;5017856;28;20059;-67
2022/07/22 05:59:58;;;;;;;7.55;1.92;;;16.30;99.90;;;;;;5033109;28;20037;-67
2022/07/22 06:02:23;;;;;;;6.50;1.80;;;16.40;99.90;;;;;;5013921;28;20481;-67
2022/07/22 06:04:49;;;;;;;5.43;1.55;;;16.40;99.90;;;;;;4999738;28;20482;-67
2022/07/22 06:07:15;;;;;;;6.20;1.75;;;16.40;99.90;;;;;;5001801;28;20090;-67
2022/07/22 06:09:41;;;;;;;7.07;2.10;;;16.40;99.90;;;;;;5034646;28;20128;-67
2022/07/22 06:12:07;;;;;;;5.63;2.05;;;16.40;99.90;;;;;;5005673;28;20374;-67
2022/07/22 06:14:33;;;;;;;6.80;1.58;;;16.40;99.90;;;;;;5030732;28;20040;-67
2022/07/22 06:16:59;;;;;;;6.00;1.65;;;16.40;99.90;;;;;;5035603;28;20091;-67
2022/07/22 06:19:24;;;;;;;5.68;1.70;;;16.40;99.90;;;;;;5036494;28;20044;-67
2022/07/22 06:21:50;;;;;;;4.07;1.60;;;16.40;99.90;;;;;;5030940;28;20178;-67
2022/07/22 06:24:16;;;;;;;6.78;1.90;;;16.40;99.90;;;;;;5035251;28;20439;-67
2022/07/22 06:26:42;;;;;;;5.88;1.55;;;16.40;99.90;;;;;;5022598;28;20567;-67
2022/07/22 06:29:08;;;;;;;8.77;2.00;;;16.50;99.90;;;;;;5034810;28;20051;-67
2022/07/22 06:31:33;;;;;;;9.00;2.13;;;16.50;99.90;;;;;;5034790;28;20056;-67
2022/07/22 06:33:59;;;;;;;4.85;1.70;;;16.50;99.90;;;;;;5035052;28;20128;-67
2022/07/22 06:36:24;;;;;;;5.55;1.50;;;16.50;99.90;;;;;;5038124;28;20029;-67
2022/07/22 06:38:50;;;;;;;6.47;1.40;;;16.40;99.90;;;;;;5033184;28;20701;-67
2022/07/22 06:41:19;;;;;;;6.85;1.98;;;16.50;99.90;;;;;;5051004;28;20124;-67
2022/07/22 06:43:45;;;;;;;7.30;1.70;;;16.50;99.90;;;;;;5033223;28;20044;-67
2022/07/22 06:46:10;;;;;;;5.38;1.70;;;16.50;99.90;;;;;;5017757;28;20063;-67
2022/07/22 06:48:36;;;;;;;4.95;1.65;;;16.60;99.90;;;;;;5031762;28;20037;-67
2022/07/22 06:51:02;;;;;;;4.90;1.60;;;16.60;99.90;;;;;;5017068;28;20163;-67
2022/07/22 06:53:27;;;;;;;5.75;1.75;;;16.60;99.90;;;;;;5029725;28;20116;-67
2022/07/22 06:55:53;;;;;;;5.90;1.80;;;16.70;99.90;;;;;;5014400;28;20551;-67
2022/07/22 06:58:19;;;;;;;6.65;2.03;;;16.70;99.90;;;;;;5011337;28;20036;-67
2022/07/22 07:00:44;;;;;;;4.32;1.58;;;16.70;99.90;;;;;;5038268;28;20033;-67
2022/07/22 07:03:10;;;;;;;6.00;1.70;;;16.80;99.90;;;;;;5029970;28;20044;-67
2022/07/22 07:05:36;;;;;;;4.53;1.67;;;16.80;99.90;;;;;;5018203;28;20094;-67
2022/07/22 07:08:02;;;;;;;6.93;1.73;;;16.80;99.90;;;;;;5044066;28;20481;-67
2022/07/22 07:10:27;;;;;;;6.57;1.70;;;16.90;99.90;;;;;;5032742;28;20048;-67
2022/07/22 07:12:59;;;;;;;3.53;1.33;;;16.90;99.90;;;;;;5027299;28;20033;-67
2022/07/22 07:15:26;;;;;;;6.95;2.03;;;17.00;99.90;;;;;;5011988;28;20033;-70
2022/07/22 07:17:52;;;;;;;8.43;2.10;;;17.10;99.90;;;;;;5031239;28;20131;-70
2022/07/22 07:20:18;;;;;;;7.65;1.85;;;17.10;99.90;;;;;;5036071;28;20128;-70
2022/07/22 07:22:44;;;;;;;7.63;1.70;;;17.20;99.90;;;;;;5033267;28;20115;-70
2022/07/22 07:25:10;;;;;;;7.18;1.95;;;17.20;99.90;;;;;;5033481;28;20440;-70
2022/07/22 07:27:36;;;;;;;6.47;1.58;;;17.20;99.90;;;;;;5015541;28;20037;-70
2022/07/22 07:30:04;;;;;;;4.45;1.42;;;17.20;99.90;;;;;;5027969;28;20043;-70
2022/07/22 07:32:30;;;;;;;8.00;2.05;;;17.20;99.90;;;;;;5028345;28;20048;-70
2022/07/22 07:34:55;;;;;;;6.45;1.77;;;17.20;99.90;;;;;;5022139;28;20049;-70
2022/07/22 07:37:21;;;;;;;6.72;1.77;;;17.20;99.90;;;;;;5035687;28;20045;-70
2022/07/22 07:39:47;;;;;;;4.50;1.50;;;17.20;99.90;;;;;;5019550;28;20504;-70
2022/07/22 07:42:12;;;;;;;5.63;1.60;;;17.20;99.90;;;;;;5030975;28;20500;-70
2022/07/22 07:44:38;;;;;;;7.80;1.83;;;17.20;99.90;;;;;;5020584;28;20033;-70
2022/07/22 07:47:04;;;;;;;5.68;1.40;;;17.30;99.90;;;;;;5034152;28;20036;-70
2022/07/22 07:49:29;;;;;;;7.25;1.65;;;17.30;99.90;;;;;;5035112;28;20036;-70
2022/07/22 07:51:55;;;;;;;8.68;2.00;;;17.30;99.90;;;;;;5042240;28;20119;-70
2022/07/22 07:54:21;;;;;;;4.95;1.75;;;17.30;99.90;;;;;;5007545;28;20040;-70
2022/07/22 07:56:46;;;;;;;9.68;1.70;;;17.30;99.90;;;;;;5032544;28;20025;-70
2022/07/22 07:59:12;;;;;;;4.82;1.60;;;17.40;99.90;;;;;;5042274;28;20489;-70
2022/07/22 08:01:38;;;;;;;9.60;1.65;;;17.40;99.90;;;;;;5046845;28;20033;-70
2022/07/22 08:04:04;;;;;;;3.55;1.40;;;17.40;99.90;;;;;;5019735;28;20128;-70
2022/07/22 08:06:29;;;;;;;4.53;1.48;;;17.40;99.90;;;;;;5020078;28;20115;-70
2022/07/22 08:08:55;;;;;;;4.88;1.42;;;17.40;99.90;;;;;;5039291;28;20044;-70
2022/07/22 08:11:20;;;;;;;9.15;1.95;;;17.40;99.90;;;;;;5051803;28;20463;-70
2022/07/22 08:13:46;;;;;;;5.43;1.75;;;17.50;99.90;;;;;;5019440;28;20052;-70
2022/07/22 08:16:12;;;;;;;6.63;1.52;;;17.50;99.90;;;;;;5032445;28;20036;-70
2022/07/22 08:18:37;;;;;;;7.05;1.50;;;17.50;99.90;;;;;;5026055;28;20168;-70
2022/07/22 08:21:03;;;;;;;6.28;1.75;;;17.50;99.90;;;;;;5033508;28;20466;-70
2022/07/22 08:23:29;;;;;;;5.38;1.45;;;17.50;99.90;;;;;;5018482;28;20064;-70
2022/07/22 08:25:54;;;;;;;6.57;1.75;;;17.50;99.90;;;;;;5034400;28;20397;-70
2022/07/22 08:28:20;;;;;;;5.65;1.77;;;17.40;99.90;;;;;;5019708;28;20444;-70
2022/07/22 08:30:46;;;;;;;6.57;1.75;;;17.50;99.90;;;;;;5047306;28;20061;-67
2022/07/22 08:33:11;;;;;;;7.05;1.50;;;17.40;99.90;;;;;;5049218;28;20064;-67
2022/07/22 08:35:37;;;;;;;6.90;1.90;;;17.40;99.90;;;;;;5041284;28;20029;-67
2022/07/22 08:38:03;;;;;;;6.30;1.80;;;17.40;99.90;;;;;;5034639;28;20112;-67
2022/07/22 08:40:28;;;;;;;3.78;1.50;;;17.30;99.90;;;;;;5036061;28;20121;-67
2022/07/22 08:42:54;;;;;;;4.53;1.45;;;17.30;99.90;;;;;;5035543;28;20048;-67
2022/07/22 08:45:20;;;;;;;5.00;1.65;;;17.30;99.90;;;;;;5036586;28;20041;-67
2022/07/22 08:47:48;;;;;;;5.63;1.50;;;17.40;99.90;;;;;;5052868;28;20094;-67
2022/07/22 08:50:13;;;;;;;6.05;1.50;;;17.40;99.90;;;;;;5019238;28;20115;-67
2022/07/22 08:52:39;;;;;;;5.13;1.60;;;17.30;99.90;;;;;;5035330;28;20478;-67
2022/07/22 08:55:07;;;;;;;6.97;1.42;;;17.40;99.90;;;;;;5019981;28;20420;-67
2022/07/22 08:57:33;;;;;;;4.68;1.50;;;17.30;99.90;;;;;;5036025;28;20572;-67
2022/07/22 09:00:00;;;;;;;6.28;1.40;;;17.40;99.90;;;;;;5020582;28;20043;-67
2022/07/22 09:02:27;;;;;;;8.05;1.63;;;17.40;99.90;;;;;;5029445;28;20051;-67
2022/07/22 09:05:03;;;;;;;7.25;1.67;;;17.40;99.90;;;;;;5008223;28;20050;-67
2022/07/22 09:07:30;;;;;;;6.10;1.50;;;17.40;99.90;;;;;;5032509;28;20051;-67
2022/07/22 09:09:58;;;;;;;9.13;1.80;;;17.40;99.90;;;;;;5014745;28;20124;-67
2022/07/22 09:12:24;;;;;;;5.72;1.80;;;17.40;99.90;;;;;;5035313;28;20049;-67
2022/07/22 09:14:52;;;;;;;9.48;1.85;;;17.50;99.90;;;;;;5034976;28;20072;-67
2022/07/22 09:17:30;;;;;;;6.55;1.67;;;17.50;99.90;;;;;;5019478;28;20033;-67
2022/07/22 09:19:57;;;;;;;5.75;1.50;;;17.60;99.90;;;;;;5051138;28;20043;-67
2022/07/22 09:22:34;;;;;;;5.05;1.75;;;17.70;99.90;;;;;;5019894;28;20110;-67
2022/07/22 09:25:28;;;;;;;4.97;1.42;;;17.80;99.90;;;;;;5033969;28;20065;-67
2022/07/22 09:28:08;;;;;;;4.30;1.30;;;17.80;99.90;;;;;;5033625;28;20040;-68
2022/07/22 09:30:36;;;;;;;6.32;2.10;;;18.00;99.90;;;;;;5034329;28;20489;-67
2022/07/22 09:33:03;;;;;;;5.57;1.80;;;18.00;99.90;;;;;;5018014;28;20489;-67
2022/07/22 09:35:29;;;;;;;6.75;1.70;;;18.00;99.90;;;;;;5034007;28;20041;-67
2022/07/22 09:38:01;;;;;;;8.82;1.65;;;18.00;99.90;;;;;;5036518;28;20044;-67
2022/07/22 09:40:29;;;;;;;4.13;1.42;;;18.10;99.90;;;;;;5026325;28;20060;-67
2022/07/22 09:43:00;;;;;;;6.28;1.40;;;18.10;99.90;;;;;;5019770;28;20040;-67
2022/07/22 09:45:28;;;;;;;4.22;1.23;;;18.20;99.90;;;;;;5033891;28;20044;-67
2022/07/22 09:47:55;;;;;;;5.25;1.38;;;18.20;99.90;;;;;;5015559;28;20091;-67
2022/07/22 09:50:23;;;;;;;5.70;1.58;;;18.30;99.90;;;;;;5034337;28;20049;-67
2022/07/22 09:52:50;;;;;;;5.10;1.50;;;18.30;99.90;;;;;;5034238;28;20049;-67
2022/07/22 09:55:18;;;;;;;6.07;1.40;;;18.20;99.90;;;;;;5032821;28;20040;-67
2022/07/22 09:57:44;;;;;;;6.35;1.40;;;18.10;99.90;;;;;;5033720;28;20033;-67
2022/07/22 10:00:11;;;;;;;5.82;1.35;;;18.00;99.90;;;;;;5016382;28;20063;-67
2022/07/22 10:02:55;;;;;;;5.20;1.40;;;18.00;99.90;;;;;;5032026;28;20501;-67
2022/07/22 10:05:23;;;;;;;4.95;1.80;;;18.00;99.90;;;;;;5035075;28;20564;-67
2022/07/22 10:07:49;;;;;;;5.03;1.42;;;18.00;99.90;;;;;;5031807;28;20128;-67
2022/07/22 10:10:18;;;;;;;7.18;1.60;;;18.00;99.90;;;;;;5018299;28;20087;-67
2022/07/22 10:12:45;;;;;;;5.13;1.80;;;18.00;99.90;;;;;;5032505;28;20044;-67
2022/07/22 10:15:11;;;;;;;4.00;1.45;;;18.00;99.90;;;;;;5018295;28;20063;-67
2022/07/22 10:17:42;;;;;;;6.43;1.58;;;18.00;99.90;;;;;;5033926;28;20036;-67
2022/07/22 10:20:09;;;;;;;5.50;1.50;;;18.00;99.90;;;;;;5025533;28;20430;-67
2022/07/22 10:22:47;;;;;;;7.13;2.00;;;18.00;99.90;;;;;;5031918;28;20119;-69
2022/07/22 10:25:13;;;;;;;8.02;1.90;;;18.10;99.90;;;;;;5018213;28;20059;-69
2022/07/22 10:27:48;;;;;;;4.57;1.33;;;18.10;99.90;;;;;;5034130;28;20592;-69
2022/07/22 10:30:35;;;;;;;5.90;1.45;;;18.00;99.90;;;;;;5039853;28;20179;-69
2022/07/22 10:33:11;;;;;;;6.32;1.30;;;18.00;99.90;;;;;;5017168;28;20034;-69
2022/07/22 10:35:52;;;;;;;4.53;1.30;;;18.10;99.90;;;;;;5027143;28;20066;-69
2022/07/22 10:38:19;;;;;;;6.22;1.45;;;18.10;99.90;;;;;;5017270;28;20065;-69
2022/07/22 10:40:49;;;;;;;4.05;1.10;;;18.20;99.90;;;;;;5048932;28;20049;-69
2022/07/22 10:43:21;;;;;;;4.53;1.33;;;18.20;99.90;;;;;;5029797;28;20041;-69
2022/07/22 10:45:47;;;;;;;6.03;1.30;;;18.20;99.90;;;;;;5034560;28;20049;-69
2022/07/22 10:48:14;;;;;;;4.45;1.10;;;18.20;99.90;;;;;;5033796;28;20049;-69
2022/07/22 10:51:05;;;;;;;7.70;1.65;;;18.20;99.90;;;;;;5033498;28;20041;-69
2022/07/22 10:53:43;;;;;;;3.00;1.10;;;18.30;99.90;;;;;;5030927;28;20041;-69
2022/07/22 10:56:14;;;;;;;5.40;1.65;;;18.40;99.90;;;;;;5031997;28;20126;-69
2022/07/22 10:58:48;;;;;;;3.08;1.10;;;18.40;99.90;;;;;;5011078;28;20037;-74
2022/07/22 11:01:17;;;;;;;7.05;1.17;;;18.50;99.90;;;;;;5019276;28;20033;-69
2022/07/22 11:03:44;;;;;;;3.72;1.17;;;18.50;99.90;;;;;;5020874;28;20507;-69
2022/07/22 11:06:26;;;;;;;3.15;1.00;;;18.50;99.90;;;;;;5037117;28;20439;-69
2022/07/22 11:08:55;;;;;;;5.03;1.33;;;18.50;99.90;;;;;;5043580;28;20044;-69
2022/07/22 11:11:41;;;;;;;5.35;1.10;;;18.60;99.90;;;;;;5037614;28;20055;-69
2022/07/22 11:14:25;;;;;;;4.55;1.20;;;18.60;99.90;;;;;;5031967;28;20095;-69
2022/07/22 11:16:51;;;;;;;2.85;1.10;;;18.60;99.90;;;;;;5011457;28;20037;-69
2022/07/22 11:19:26;;;;;;;2.42;1.15;;;18.70;99.90;;;;;;5020643;28;20056;-69
2022/07/22 11:21:54;;;;;;;2.92;1.10;;;18.70;99.90;;;;;;5036419;28;20047;-69
2022/07/22 11:24:21;;;;;;;4.38;0.90;;;18.70;99.90;;;;;;5052603;28;20037;-69
2022/07/22 11:26:51;;;;;;;5.28;1.00;;;18.70;99.90;;;;;;5036864;28;20452;-69
2022/07/22 11:29:35;;;;;;;5.03;1.15;;;18.70;99.90;;;;;;5020517;28;20128;-69
2022/07/22 11:32:04;;;;;;;2.25;0.80;;;18.80;99.90;;;;;;5036022;28;20063;-69
2022/07/22 11:34:29;;;;;;;1.33;0.80;;;18.90;99.90;;;;;;5019125;28;20048;-69
2022/07/22 11:36:57;;;;;;;4.82;1.00;;;18.90;99.90;;;;;;5036467;28;20045;-69
2022/07/22 11:39:28;;;;;;;3.60;1.00;;;18.90;99.90;;;;;;5036027;28;20032;-70
2022/07/22 11:41:56;;;;;;;2.75;1.00;;;18.90;99.90;;;;;;5035028;28;20120;-69
2022/07/22 11:44:24;;;;;;;2.35;0.98;;;18.90;99.90;;;;;;5018778;28;20406;-69
2022/07/22 11:46:50;;;;;;;2.85;1.00;;;18.90;99.90;;;;;;5020514;28;20128;-70
2022/07/22 11:49:20;;;;;;;2.95;1.00;;;18.90;99.90;;;;;;5019541;28;20033;-70
2022/07/22 11:51:47;;;;;;;3.05;1.05;;;18.80;99.90;;;;;;5035917;28;20378;-69
2022/07/22 11:54:13;;;;;;;3.10;0.98;;;18.80;99.90;;;;;;5036496;28;20048;-69
2022/07/22 11:56:39;;;;;;;2.90;1.00;;;18.80;99.90;;;;;;5036954;28;20040;-69
2022/07/22 11:59:06;;;;;;;3.20;1.00;;;18.80;99.90;;;;;;5032501;28;20041;-69
2022/07/22 12:01:35;;;;;;;3.40;1.10;;;18.70;99.90;;;;;;5037055;28;20482;-69
2022/07/22 12:04:10;;;;;;;5.18;1.10;;;18.70;99.90;;;;;;5019395;28;20096;-69
2022/07/22 12:06:39;;;;;;;4.28;1.40;;;18.70;99.90;;;;;;5041266;28;20045;-69
2022/07/22 12:09:08;;;;;;;3.42;1.20;;;18.70;99.90;;;;;;5019998;28;20041;-69
2022/07/22 12:11:36;;;;;;;3.25;1.27;;;18.70;99.90;;;;;;5019120;28;20556;-69
2022/07/22 12:14:21;;;;;;;2.83;1.10;;;18.60;99.90;;;;;;5036445;28;20049;-70
2022/07/22 12:17:14;;;;;;;2.90;0.90;;;18.60;99.90;;;;;;5034892;28;20079;-69
2022/07/22 12:19:40;;;;;;;5.45;1.55;;;18.70;99.90;;;;;;5009736;28;20052;-70
2022/07/22 12:22:20;;;;;;;2.92;1.27;;;18.70;99.90;;;;;;5034699;28;20124;-69
2022/07/22 12:24:57;;;;;;;4.30;1.25;;;18.70;99.90;;;;;;5035359;28;20555;-69
2022/07/22 12:27:23;;;;;;;2.92;1.00;;;18.70;99.90;;;;;;5033304;28;20037;-69
2022/07/22 12:29:49;;;;;;;5.18;1.15;;;18.80;99.90;;;;;;5007457;28;20501;-69
2022/07/22 12:32:24;;;;;;;4.00;1.40;;;18.80;99.90;;;;;;5033053;28;20060;-69
2022/07/22 12:34:58;;;;;;;2.33;1.15;;;18.80;99.90;;;;;;5033276;28;20041;-69
2022/07/22 12:37:26;;;;;;;6.22;1.60;;;18.80;99.90;;;;;;5032811;28;20109;-69
2022/07/22 12:40:08;;;;;;;3.05;1.15;;;18.70;99.90;;;;;;5017535;28;20068;-69
2022/07/22 12:42:45;;;;;;;4.97;1.58;;;18.70;99.90;;;;;;5014218;28;20041;-69
2022/07/22 12:45:21;;;;;;;4.45;1.40;;;18.80;99.90;;;;;;5035421;28;20045;-69